createdAt,value
2018-11-29T00:01:40.839Z,101578.15
2018-11-29T00:04:08.519Z,101557.46
2018-11-29T00:06:35.435Z,101568.84
2018-11-29T00:09:02.404Z,101578.98
2018-11-29T00:11:29.311Z,101582.24
2018-11-29T00:13:56.204Z,101585.77
2018-11-29T00:16:23.096Z,101593.75
2018-11-29T00:18:50.028Z,101595.44
2018-11-29T00:21:16.917Z,101584.89
2018-11-29T00:23:43.819Z,101581.50
2018-11-29T00:26:10.718Z,101571.84
2018-11-29T00:28:37.631Z,101574.36
2018-11-29T00:31:04.721Z,101563.59
2018-11-29T00:33:31.619Z,101555.52
2018-11-29T00:35:58.518Z,101553.68
2018-11-29T00:38:25.418Z,101551.02
2018-11-29T00:40:52.310Z,101552.34
2018-11-29T00:43:19.234Z,101550.28
2018-11-29T00:45:46.117Z,101544.86
2018-11-29T00:48:13.010Z,101545.70
2018-11-29T00:50:39.898Z,101541.94
2018-11-29T00:53:06.790Z,101545.70
2018-11-29T00:55:33.670Z,101544.86
2018-11-29T00:58:00.577Z,101548.59
2018-11-29T01:00:27.482Z,101541.56
2018-11-29T01:02:54.390Z,101526.58
2018-11-29T01:05:21.325Z,101529.61
2018-11-29T01:07:48.243Z,101520.30
2018-11-29T01:10:16.810Z,101516.30
2018-11-29T01:12:44.238Z,101514.14
2018-11-29T01:15:12.925Z,101515.24
2018-11-29T01:17:39.841Z,101519.59
2018-11-29T01:20:09.987Z,101520.06
2018-11-29T01:22:36.911Z,101515.61
2018-11-29T01:25:04.588Z,101509.66
2018-11-29T01:27:31.487Z,101512.45
2018-11-29T01:29:58.363Z,101517.17
2018-11-29T01:32:25.274Z,101508.09
2018-11-29T01:34:52.182Z,101516.66
2018-11-29T01:37:19.078Z,101511.25
2018-11-29T01:39:45.967Z,101525.25
2018-11-29T01:42:12.872Z,101523.33
2018-11-29T01:44:39.759Z,101529.88
2018-11-29T01:47:06.659Z,101524.78
2018-11-29T01:49:33.559Z,101520.80
2018-11-29T01:52:00.456Z,101523.95
2018-11-29T01:54:27.345Z,101525.63
2018-11-29T01:56:54.234Z,101526.36
2018-11-29T01:59:21.135Z,101532.27
2018-11-29T02:01:48.018Z,101523.23
2018-11-29T02:04:14.922Z,101529.75
2018-11-29T02:06:41.813Z,101527.83
2018-11-29T02:09:08.739Z,101534.24
2018-11-29T02:11:35.637Z,101524.56
2018-11-29T02:14:02.547Z,101511.03
2018-11-29T02:16:29.442Z,101522.50
2018-11-29T02:18:56.372Z,101525.53
2018-11-29T02:21:23.596Z,101519.11
2018-11-29T02:23:50.496Z,101527.69
2018-11-29T02:26:17.387Z,101523.00
2018-11-29T02:28:46.643Z,101510.16
2018-11-29T02:31:13.845Z,101516.58
2018-11-29T02:33:40.759Z,101508.60
2018-11-29T02:36:07.656Z,101502.78
2018-11-29T02:38:34.891Z,101508.84
2018-11-29T02:41:01.783Z,101516.69
2018-11-29T02:43:28.686Z,101517.05
2018-11-29T02:45:55.580Z,101517.78
2018-11-29T02:48:22.475Z,101519.84
2018-11-29T02:50:49.370Z,101525.40
2018-11-29T02:53:16.277Z,101521.31
2018-11-29T02:55:43.166Z,101529.89
2018-11-29T02:58:10.050Z,101522.50
2018-11-29T03:00:36.951Z,101510.30
2018-11-29T03:03:03.835Z,101504.02
2018-11-29T03:05:30.751Z,101498.06
2018-11-29T03:07:57.635Z,101493.11
2018-11-29T03:10:25.581Z,101479.56
2018-11-29T03:12:52.475Z,101474.74
2018-11-29T03:15:19.403Z,101466.63
2018-11-29T03:17:46.292Z,101466.25
2018-11-29T03:20:13.735Z,101470.61
2018-11-29T03:22:40.683Z,101464.42
2018-11-29T03:25:11.451Z,101452.35
2018-11-29T03:27:38.356Z,101451.72
2018-11-29T03:30:09.783Z,101461.53
2018-11-29T03:32:36.688Z,101463.35
2018-11-29T03:35:03.682Z,101464.42
2018-11-29T03:37:30.567Z,101463.20
2018-11-29T03:39:57.462Z,101462.84
2018-11-29T03:42:24.366Z,101455.09
2018-11-29T03:44:51.267Z,101460.19
2018-11-29T03:47:18.151Z,101452.80
2018-11-29T03:49:45.049Z,101433.45
2018-11-29T03:52:11.935Z,101432.85
2018-11-29T03:54:38.819Z,101419.20
2018-11-29T03:57:05.905Z,101422.08
2018-11-29T03:59:32.804Z,101430.66
2018-11-29T04:01:59.699Z,101432.25
2018-11-29T04:04:26.611Z,101437.44
2018-11-29T04:06:53.499Z,101445.28
2018-11-29T04:09:20.370Z,101430.33
2018-11-29T04:11:47.249Z,101428.73
2018-11-29T04:14:14.130Z,101435.27
2018-11-29T04:16:40.998Z,101436.70
2018-11-29T04:19:07.882Z,101437.94
2018-11-29T04:21:35.314Z,101441.30
2018-11-29T04:24:02.206Z,101444.59
2018-11-29T04:26:29.111Z,101446.16
2018-11-29T04:28:55.998Z,101444.70
2018-11-29T04:31:22.898Z,101438.77
2018-11-29T04:33:49.788Z,101432.63
2018-11-29T04:36:16.703Z,101422.59
2018-11-29T04:38:43.601Z,101417.27
2018-11-29T04:41:10.517Z,101418.83
2018-11-29T04:43:37.412Z,101414.02
2018-11-29T04:47:13.867Z,101421.98
2018-11-29T04:49:41.070Z,101417.73
2018-11-29T04:52:07.982Z,101419.93
2018-11-29T04:54:34.906Z,101421.72
2018-11-29T04:57:01.879Z,101415.34
2018-11-29T04:59:28.787Z,101416.77
2018-11-29T05:01:55.747Z,101413.15
2018-11-29T05:04:22.651Z,101418.73
2018-11-29T05:06:49.559Z,101413.52
2018-11-29T05:09:16.450Z,101402.28
2018-11-29T05:11:43.358Z,101391.64
2018-11-29T05:14:10.272Z,101402.05
2018-11-29T05:16:37.182Z,101401.55
2018-11-29T05:19:04.119Z,101390.68
2018-11-29T05:21:31.037Z,101385.23
2018-11-29T05:23:57.923Z,101380.04
2018-11-29T05:26:24.812Z,101382.47
2018-11-29T05:28:51.715Z,101377.75
2018-11-29T05:31:18.602Z,101374.59
2018-11-29T05:33:45.488Z,101371.70
2018-11-29T05:36:12.358Z,101373.26
2018-11-29T05:38:39.238Z,101382.10
2018-11-29T05:41:06.133Z,101376.65
2018-11-29T05:43:33.146Z,101386.45
2018-11-29T05:46:00.026Z,101387.42
2018-11-29T05:48:26.910Z,101391.27
2018-11-29T05:50:53.802Z,101388.38
2018-11-29T05:53:20.686Z,101379.30
2018-11-29T05:55:47.576Z,101385.25
2018-11-29T05:58:14.490Z,101385.25
2018-11-29T06:00:41.414Z,101389.84
2018-11-29T06:03:08.314Z,101392.97
2018-11-29T06:05:35.192Z,101388.88
2018-11-29T06:08:02.104Z,101388.88
2018-11-29T06:10:29.006Z,101387.28
2018-11-29T06:12:55.910Z,101389.94
2018-11-29T06:15:22.797Z,101376.63
2018-11-29T06:17:49.703Z,101380.99
2018-11-29T06:20:17.602Z,101376.16
2018-11-29T06:22:44.570Z,101375.33
2018-11-29T06:25:11.585Z,101364.91
2018-11-29T06:27:38.533Z,101358.99
2018-11-29T06:30:09.907Z,101367.33
2018-11-29T06:32:36.810Z,101363.44
2018-11-29T06:35:03.991Z,101366.83
2018-11-29T06:37:30.900Z,101361.87
2018-11-29T06:39:57.807Z,101368.88
2018-11-29T06:42:24.710Z,101365.36
2018-11-29T06:44:51.611Z,101370.69
2018-11-29T06:47:18.499Z,101369.48
2018-11-29T06:49:45.401Z,101366.81
2018-11-29T06:52:12.336Z,101364.29
2018-11-29T06:54:39.242Z,101371.31
2018-11-29T06:57:06.139Z,101365.71
2018-11-29T06:59:33.046Z,101364.38
2018-11-29T07:01:59.969Z,101373.59
2018-11-29T07:04:26.883Z,101365.47
2018-11-29T07:06:53.784Z,101370.93
2018-11-29T07:09:20.693Z,101364.03
2018-11-29T07:11:47.595Z,101370.33
2018-11-29T07:14:14.518Z,101367.89
2018-11-29T07:16:41.434Z,101369.58
2018-11-29T07:19:08.351Z,101369.22
2018-11-29T07:21:53.260Z,101363.52
2018-11-29T07:24:20.189Z,101364.11
2018-11-29T07:26:47.082Z,101360.25
2018-11-29T07:29:16.860Z,101353.09
2018-11-29T07:31:47.854Z,101348.50
2018-11-29T07:34:14.743Z,101354.69
2018-11-29T07:36:41.653Z,101360.23
2018-11-29T07:39:09.029Z,101352.36
2018-11-29T07:41:36.854Z,101351.75
2018-11-29T07:44:03.874Z,101347.77
2018-11-29T07:46:30.782Z,101351.98
2018-11-29T07:48:57.669Z,101341.80
2018-11-29T07:51:24.570Z,101337.80
2018-11-29T07:53:51.465Z,101336.23
2018-11-29T07:56:18.367Z,101338.63
2018-11-29T07:58:45.250Z,101336.42
2018-11-29T08:01:12.147Z,101338.63
2018-11-29T08:03:39.038Z,101342.98
2018-11-29T08:06:05.950Z,101340.17
2018-11-29T08:08:32.842Z,101339.20
2018-11-29T08:10:59.765Z,101338.84
2018-11-29T08:13:26.646Z,101345.50
2018-11-29T08:15:53.571Z,101337.48
2018-11-29T08:18:20.463Z,101334.35
2018-11-29T08:20:47.383Z,101339.67
2018-11-29T08:23:14.298Z,101351.66
2018-11-29T08:25:41.199Z,101343.89
2018-11-29T08:28:08.117Z,101338.78
2018-11-29T08:30:35.050Z,101342.17
2018-11-29T08:33:02.021Z,101332.96
2018-11-29T08:35:28.971Z,101327.63
2018-11-29T08:37:56.954Z,101319.50
2018-11-29T08:40:23.858Z,101318.42
2018-11-29T08:42:51.761Z,101309.28
2018-11-29T08:45:19.451Z,101304.16
2018-11-29T08:47:47.675Z,101309.14
2018-11-29T08:50:14.922Z,101305.34
2018-11-29T08:52:45.256Z,101305.56
2018-11-29T08:55:13.257Z,101297.31
2018-11-29T08:57:41.263Z,101298.03
2018-11-29T09:00:12.388Z,101301.74
2018-11-29T09:02:39.342Z,101311.32
2018-11-29T09:05:07.754Z,101301.23
2018-11-29T09:07:34.730Z,101311.28
2018-11-29T09:10:01.665Z,101300.25
2018-11-29T09:12:28.593Z,101297.45
2018-11-29T09:14:55.521Z,101297.45
2018-11-29T09:17:22.443Z,101308.33
2018-11-29T09:19:49.367Z,101302.63
2018-11-29T09:22:17.894Z,101302.94
2018-11-29T09:24:43.232Z,101297.36
2018-11-29T09:27:10.141Z,101295.62
2018-11-29T09:29:37.057Z,101299.62
2018-11-29T09:32:04.078Z,101295.98
2018-11-29T09:34:31.000Z,101289.67
2018-11-29T09:36:57.913Z,101288.33
2018-11-29T09:39:24.840Z,101273.50
2018-11-29T09:41:51.769Z,101283.67
2018-11-29T09:44:18.686Z,101285.36
2018-11-29T09:46:45.595Z,101286.69
2018-11-29T09:49:12.523Z,101278.28
2018-11-29T09:51:39.442Z,101284.78
2018-11-29T09:54:06.369Z,101276.06
2018-11-29T09:56:33.282Z,101276.89
2018-11-29T09:59:00.210Z,101270.47
2018-11-29T10:01:27.126Z,101267.03
2018-11-29T10:03:54.055Z,101261.91
2018-11-29T10:06:20.960Z,101254.77
2018-11-29T10:08:47.927Z,101252.09
2018-11-29T10:11:14.850Z,101260.52
2018-11-29T10:13:46.180Z,101255.38
2018-11-29T10:16:08.723Z,101253.72
2018-11-29T10:18:35.635Z,101262.05
2018-11-29T10:21:02.574Z,101263.63
2018-11-29T10:23:29.495Z,101268.72
2018-11-29T10:25:56.424Z,101264.95
2018-11-29T10:28:23.338Z,101261.38
2018-11-29T10:30:55.149Z,101256.03
2018-11-29T10:33:22.069Z,101253.98
2018-11-29T10:35:49.005Z,101254.84
2018-11-29T10:38:15.913Z,101254.23
2018-11-29T10:40:42.845Z,101248.62
2018-11-29T10:43:09.826Z,101238.22
2018-11-29T10:45:36.750Z,101239.28
2018-11-29T10:48:04.382Z,101234.98
2018-11-29T10:50:31.307Z,101224.30
2018-11-29T10:52:58.219Z,101226.27
2018-11-29T10:55:25.154Z,101222.70
2018-11-29T10:57:52.059Z,101227.14
2018-11-29T11:00:25.786Z,101231.77
2018-11-29T11:02:59.464Z,101231.41
2018-11-29T11:05:26.445Z,101225.09
2018-11-29T11:07:53.363Z,101223.14
2018-11-29T11:10:20.331Z,101226.92
2018-11-29T11:12:47.279Z,101223.42
2018-11-29T11:15:14.199Z,101228.39
2018-11-29T11:17:41.122Z,101219.98
2018-11-29T11:20:08.078Z,101206.76
2018-11-29T11:22:35.009Z,101210.48
2018-11-29T11:25:01.962Z,101200.98
2018-11-29T11:27:28.887Z,101208.61
2018-11-29T11:29:55.797Z,101188.90
2018-11-29T11:32:22.723Z,101192.78
2018-11-29T11:34:49.626Z,101194.52
2018-11-29T11:37:16.551Z,101192.00
2018-11-29T11:39:43.471Z,101185.83
2018-11-29T11:42:10.390Z,101180.06
2018-11-29T11:44:37.294Z,101194.74
2018-11-29T11:47:04.778Z,101193.95
2018-11-29T11:49:31.691Z,101189.44
2018-11-29T11:51:58.616Z,101194.31
2018-11-29T11:54:25.516Z,101188.11
2018-11-29T11:56:52.435Z,101186.10
2018-11-29T11:59:19.345Z,101193.09
2018-11-29T12:01:46.311Z,101187.36
2018-11-29T12:04:13.234Z,101187.83
2018-11-29T12:06:40.154Z,101190.50
2018-11-29T12:09:07.750Z,101183.43
2018-11-29T12:11:34.675Z,101183.97
2018-11-29T12:14:01.624Z,101189.08
2018-11-29T12:16:28.559Z,101188.89
2018-11-29T12:19:02.088Z,101181.94
2018-11-29T12:21:22.451Z,101187.62
2018-11-29T12:23:49.387Z,101180.80
2018-11-29T12:26:16.318Z,101168.22
2018-11-29T12:28:43.248Z,101168.61
2018-11-29T12:31:10.162Z,101165.09
2018-11-29T12:33:37.081Z,101163.45
2018-11-29T12:36:04.034Z,101167.68
2018-11-29T12:38:30.975Z,101160.36
2018-11-29T12:40:57.932Z,101164.57
2018-11-29T12:43:24.858Z,101162.69
2018-11-29T12:45:51.792Z,101162.34
2018-11-29T12:48:18.735Z,101154.80
2018-11-29T12:50:45.666Z,101138.48
2018-11-29T12:53:12.595Z,101132.16
2018-11-29T12:55:41.029Z,101151.91
2018-11-29T12:58:07.948Z,101149.88
2018-11-29T13:00:34.901Z,101144.81
2018-11-29T13:03:01.838Z,101131.70
2018-11-29T13:05:28.783Z,101127.51
2018-11-29T13:07:55.907Z,101111.19
2018-11-29T13:10:24.859Z,101112.02
2018-11-29T13:12:52.027Z,101103.36
2018-11-29T13:15:25.420Z,101102.16
2018-11-29T13:17:52.839Z,101103.55
2018-11-29T13:20:19.795Z,101091.17
2018-11-29T13:22:46.752Z,101086.18
2018-11-29T13:25:14.815Z,101082.87
2018-11-29T13:27:41.810Z,101078.67
2018-11-29T13:30:10.876Z,101070.14
2018-11-29T13:32:37.807Z,101064.95
2018-11-29T13:35:08.879Z,101063.91
2018-11-29T13:37:35.799Z,101069.09
2018-11-29T13:40:04.073Z,101053.41
2018-11-29T13:42:31.013Z,101057.77
2018-11-29T13:44:57.967Z,101054.27
2018-11-29T13:47:24.952Z,101051.25
2018-11-29T13:49:51.874Z,101051.06
2018-11-29T13:52:18.832Z,101050.04
2018-11-29T13:54:45.768Z,101041.73
2018-11-29T13:57:12.703Z,101045.05
2018-11-29T13:59:39.637Z,101039.06
2018-11-29T14:02:06.601Z,101035.91
2018-11-29T14:04:33.518Z,101039.57
2018-11-29T14:07:00.451Z,101037.08
2018-11-29T14:09:27.386Z,101035.40
2018-11-29T14:11:54.334Z,101024.71
2018-11-29T14:14:21.246Z,101028.43
2018-11-29T14:16:48.170Z,101022.55
2018-11-29T14:19:15.099Z,101014.20
2018-11-29T14:21:42.048Z,101008.86
2018-11-29T14:24:08.995Z,100994.48
2018-11-29T14:26:35.938Z,100991.48
2018-11-29T14:29:02.906Z,100981.60
2018-11-29T14:31:29.842Z,100975.56
2018-11-29T14:33:56.766Z,100968.06
2018-11-29T14:36:23.695Z,100961.85
2018-11-29T14:38:50.622Z,100969.69
2018-11-29T14:41:17.563Z,100994.25
2018-11-29T14:43:44.482Z,101007.95
2018-11-29T14:46:18.140Z,100998.89
2018-11-29T14:48:45.071Z,100992.56
2018-11-29T14:51:11.995Z,100984.55
2018-11-29T14:53:38.928Z,100967.17
2018-11-29T14:56:05.871Z,100964.50
2018-11-29T14:58:32.817Z,100953.30
2018-11-29T15:00:59.819Z,100956.19
2018-11-29T15:03:26.781Z,100951.14
2018-11-29T15:05:53.715Z,100948.13
2018-11-29T15:08:20.654Z,100951.09
2018-11-29T15:10:47.599Z,100950.61
2018-11-29T15:13:14.527Z,100948.71
2018-11-29T15:15:42.071Z,100957.38
2018-11-29T15:18:09.748Z,100961.70
2018-11-29T15:20:45.899Z,100969.20
2018-11-29T15:23:14.083Z,100963.67
2018-11-29T15:25:41.011Z,100965.48
2018-11-29T15:28:07.941Z,100949.68
2018-11-29T15:30:34.880Z,100944.69
2018-11-29T15:33:01.829Z,100936.85
2018-11-29T15:35:28.824Z,100934.53
2018-11-29T15:37:55.800Z,100933.54
2018-11-29T15:40:24.158Z,100926.34
2018-11-29T15:42:51.114Z,100921.22
2018-11-29T15:45:19.268Z,100930.70
2018-11-29T15:47:46.218Z,100922.00
2018-11-29T15:50:13.879Z,100928.67
2018-11-29T15:52:40.855Z,100944.70
2018-11-29T15:55:15.223Z,100930.23
2018-11-29T15:57:42.419Z,100935.91
2018-11-29T16:00:30.163Z,100934.81
2018-11-29T16:03:00.251Z,100945.69
2018-11-29T16:05:27.204Z,100938.89
2018-11-29T16:07:54.146Z,100933.27
2018-11-29T16:10:22.117Z,100938.27
2018-11-29T16:12:49.062Z,100934.61
2018-11-29T16:15:17.047Z,100920.64
2018-11-29T16:17:44.599Z,100925.69
2018-11-29T16:20:17.073Z,100917.16
2018-11-29T16:22:42.839Z,100914.48
2018-11-29T16:25:10.567Z,100917.16
2018-11-29T16:27:37.516Z,100911.33
2018-11-29T16:30:13.269Z,100908.84
2018-11-29T16:32:40.364Z,100908.97
2018-11-29T16:35:07.686Z,100911.33
2018-11-29T16:37:34.645Z,100912.67
2018-11-29T16:40:01.944Z,100903.31
2018-11-29T16:42:28.898Z,100904.30
2018-11-29T16:44:55.846Z,100903.27
2018-11-29T16:47:22.782Z,100899.09
2018-11-29T16:49:49.707Z,100890.43
2018-11-29T16:52:16.629Z,100883.05
2018-11-29T16:54:43.573Z,100885.94
2018-11-29T16:57:10.507Z,100882.41
2018-11-29T16:59:37.476Z,100873.17
2018-11-29T17:02:04.635Z,100875.20
2018-11-29T17:04:31.567Z,100866.84
2018-11-29T17:06:58.538Z,100870.16
2018-11-29T17:09:25.470Z,100863.47
2018-11-29T17:11:52.430Z,100858.09
2018-11-29T17:14:19.362Z,100858.94
2018-11-29T17:16:46.340Z,100852.09
2018-11-29T17:19:13.285Z,100849.41
2018-11-29T17:21:43.667Z,100846.22
2018-11-29T17:24:12.610Z,100843.73
2018-11-29T17:26:40.724Z,100653.95
2018-11-29T17:29:09.646Z,100839.08
2018-11-29T17:31:38.571Z,100842.05
2018-11-29T17:34:07.023Z,100834.23
2018-11-29T17:36:34.715Z,100830.88
2018-11-29T17:39:01.742Z,100833.42
2018-11-29T17:41:30.864Z,100828.77
2018-11-29T17:44:01.899Z,100826.09
2018-11-29T17:46:28.973Z,100814.75
2018-11-29T17:48:55.942Z,100819.11
2018-11-29T17:51:22.903Z,100814.42
2018-11-29T17:53:49.817Z,100813.72
2018-11-29T17:56:17.638Z,100811.88
2018-11-29T17:58:44.599Z,100819.06
2018-11-29T18:01:11.534Z,100816.39
2018-11-29T18:03:38.470Z,100811.05
2018-11-29T18:06:05.433Z,100806.05
2018-11-29T18:08:32.378Z,100806.34
2018-11-29T18:10:59.306Z,100800.31
2018-11-29T18:13:31.466Z,100785.78
2018-11-29T18:15:58.412Z,100788.63
2018-11-29T18:18:25.358Z,100788.25
2018-11-29T18:20:52.278Z,100782.25
2018-11-29T18:23:19.211Z,100777.89
2018-11-29T18:25:46.164Z,100774.84
2018-11-29T18:28:13.116Z,100767.69
2018-11-29T18:30:40.058Z,100758.33
2018-11-29T18:33:07.022Z,100743.42
2018-11-29T18:35:34.508Z,100733.93
2018-11-29T18:38:01.369Z,100732.08
2018-11-29T18:40:28.310Z,100726.26
2018-11-29T18:42:57.180Z,100749.28
2018-11-29T18:45:24.277Z,100750.10
2018-11-29T18:47:51.878Z,100742.94
2018-11-29T18:50:19.792Z,100749.76
2018-11-29T18:52:47.065Z,100744.41
2018-11-29T18:55:14.115Z,100752.13
2018-11-29T18:57:41.065Z,100746.13
2018-11-29T19:00:12.170Z,100762.16
2018-11-29T19:02:39.162Z,100742.95
2018-11-29T19:05:06.815Z,100756.82
2018-11-29T19:07:33.750Z,100765.18
2018-11-29T19:10:00.699Z,100798.59
2018-11-29T19:12:27.630Z,100820.66
2018-11-29T19:14:54.601Z,100827.86
2018-11-29T19:17:25.071Z,100820.23
2018-11-29T19:19:48.482Z,100807.04
2018-11-29T19:22:15.411Z,100803.55
2018-11-29T19:24:42.366Z,100797.38
2018-11-29T19:27:09.292Z,100806.73
2018-11-29T19:29:36.275Z,100799.87
2018-11-29T19:32:03.207Z,100795.35
2018-11-29T19:34:30.135Z,100777.98
2018-11-29T19:36:57.074Z,100781.52
2018-11-29T19:39:23.986Z,100780.83
2018-11-29T19:41:50.930Z,100784.02
2018-11-29T19:44:17.858Z,100776.69
2018-11-29T19:46:44.798Z,100772.54
2018-11-29T19:49:11.825Z,100771.51
2018-11-29T19:51:38.703Z,100767.36
2018-11-29T19:54:05.651Z,100798.79
2018-11-29T19:59:06.292Z,100771.09
2018-11-29T20:01:33.151Z,100772.47
2018-11-29T20:04:00.101Z,100771.47
2018-11-29T20:06:27.076Z,100777.81
2018-11-29T20:08:53.986Z,100797.88
2018-11-29T20:11:20.921Z,100796.23
2018-11-29T20:13:47.835Z,100784.02
2018-11-29T20:16:14.807Z,100768.83
2018-11-29T20:18:41.811Z,100775.03
2018-11-29T20:21:08.767Z,100783.23
2018-11-29T20:23:35.754Z,100775.55
2018-11-29T20:26:02.714Z,100787.03
2018-11-29T20:28:29.663Z,100780.55
2018-11-29T20:30:56.612Z,100781.00
2018-11-29T20:33:23.541Z,100779.36
2018-11-29T20:35:50.467Z,100782.34
2018-11-29T20:38:17.393Z,100779.36
2018-11-29T20:40:45.262Z,100787.69
2018-11-29T20:43:12.189Z,100790.19
2018-11-29T20:45:42.335Z,100791.19
2018-11-29T20:48:16.607Z,100803.22
2018-11-29T20:50:43.527Z,100801.41
2018-11-29T20:53:13.210Z,100802.95
2018-11-29T20:55:40.145Z,100804.11
2018-11-29T20:58:07.581Z,100804.14
2018-11-29T21:00:34.501Z,100801.16
2018-11-29T21:03:01.410Z,100806.81
2018-11-29T21:05:28.323Z,100786.58
2018-11-29T21:07:56.755Z,100794.13
2018-11-29T21:10:24.320Z,100793.33
2018-11-29T21:12:51.334Z,100790.66
2018-11-29T21:15:18.331Z,100790.31
2018-11-29T21:17:45.255Z,100791.14
2018-11-29T21:20:14.368Z,100788.30
2018-11-29T21:22:42.539Z,100794.98
2018-11-29T21:25:10.923Z,100790.45
2018-11-29T21:27:37.878Z,100787.44
2018-11-29T21:30:08.197Z,100790.97
2018-11-29T21:32:35.170Z,100789.63
2018-11-29T21:35:02.126Z,100790.80
2018-11-29T21:37:29.039Z,100790.14
2018-11-29T21:39:55.978Z,100788.80
2018-11-29T21:42:22.887Z,100787.64
2018-11-29T21:44:49.826Z,100782.94
2018-11-29T21:47:16.772Z,100785.13
2018-11-29T21:49:43.693Z,100778.27
2018-11-29T21:52:10.612Z,100780.58
2018-11-29T21:54:38.851Z,100772.70
2018-11-29T21:57:05.767Z,100776.20
2018-11-29T21:59:35.470Z,100780.89
2018-11-29T22:01:59.634Z,100769.52
2018-11-29T22:04:26.574Z,100768.03
2018-11-29T22:06:53.491Z,100764.84
2018-11-29T22:09:20.416Z,100761.66
2018-11-29T22:11:47.342Z,100763.16
2018-11-29T22:14:14.255Z,100763.51
2018-11-29T22:16:41.166Z,100754.45
2018-11-29T22:19:08.067Z,100758.27
2018-11-29T22:21:34.971Z,100758.92
2018-11-29T22:24:01.937Z,100746.20
2018-11-29T22:26:28.846Z,100753.23
2018-11-29T22:28:55.776Z,100742.19
2018-11-29T22:31:22.677Z,100752.06
2018-11-29T22:33:49.606Z,100745.72
2018-11-29T22:36:16.506Z,100741.88
2018-11-29T22:38:44.469Z,100748.05
2018-11-29T22:41:10.358Z,100751.75
2018-11-29T22:43:37.286Z,100747.43
2018-11-29T22:46:04.378Z,100741.91
2018-11-29T22:48:31.306Z,100751.61
2018-11-29T22:50:58.260Z,100736.76
2018-11-29T22:53:25.186Z,100729.23
2018-11-29T22:55:52.466Z,100743.50
2018-11-29T22:58:19.392Z,100747.16
2018-11-29T23:00:51.626Z,100751.37
2018-11-29T23:03:18.563Z,100756.58
2018-11-29T23:05:45.529Z,100755.09
2018-11-29T23:08:12.478Z,100766.13
2018-11-29T23:10:39.393Z,100763.60
2018-11-29T23:13:06.359Z,100755.94
2018-11-29T23:15:33.299Z,100760.45
2018-11-29T23:18:00.223Z,100768.34
2018-11-29T23:20:27.130Z,100762.16
2018-11-29T23:22:54.158Z,100766.67
2018-11-29T23:25:21.107Z,100760.33
2018-11-29T23:27:48.033Z,100746.28
2018-11-29T23:30:15.791Z,100764.50
2018-11-29T23:32:42.916Z,100766.34
2018-11-29T23:35:10.549Z,100746.11
2018-11-29T23:37:37.462Z,100701.26
2018-11-29T23:40:06.488Z,100732.92
2018-11-29T23:42:33.418Z,100734.74
2018-11-29T23:45:00.541Z,100729.24
2018-11-29T23:47:27.470Z,100724.05
2018-11-29T23:49:54.382Z,100735.27
2018-11-29T23:52:21.299Z,100741.77
2018-11-29T23:54:48.250Z,100721.87
2018-11-29T23:57:15.170Z,100725.70
2018-11-29T23:59:42.117Z,100726.23
